sensor_id;sensor_type;location;lat;lon;timestamp;P1;durP1;ratioP1;P2;durP2;ratioP2
20535;SDS011;10426;49.420;8.390;2022-08-04T00:00:15;4.20;;;2.40;;
20535;SDS011;10426;49.420;8.390;2022-08-04T00:02:58;4.65;;;2.58;;
20535;SDS011;10426;49.420;8.390;2022-08-04T00:05:28;2.72;;;2.28;;
20535;SDS011;10426;49.420;8.390;2022-08-04T00:07:59;6.15;;;2.40;;
20535;SDS011;10426;49.420;8.390;2022-08-04T00:10:30;2.75;;;2.22;;
20535;SDS011;10426;49.420;8.390;2022-08-04T00:12:59;2.60;;;2.40;;
20535;SDS011;10426;49.420;8.390;2022-08-04T00:15:29;3.08;;;2.58;;
20535;SDS011;10426;49.420;8.390;2022-08-04T00:17:58;2.40;;;2.20;;
20535;SDS011;10426;49.420;8.390;2022-08-04T00:20:27;4.90;;;2.47;;
20535;SDS011;10426;49.420;8.390;2022-08-04T00:22:54;2.42;;;2.22;;
20535;SDS011;10426;49.420;8.390;2022-08-04T00:25:22;3.35;;;2.30;;
20535;SDS011;10426;49.420;8.390;2022-08-04T00:27:49;3.55;;;2.30;;
20535;SDS011;10426;49.420;8.390;2022-08-04T00:30:16;2.72;;;2.30;;
20535;SDS011;10426;49.420;8.390;2022-08-04T00:32:44;6.50;;;2.55;;
20535;SDS011;10426;49.420;8.390;2022-08-04T00:35:12;2.60;;;2.40;;
20535;SDS011;10426;49.420;8.390;2022-08-04T00:37:39;3.40;;;2.33;;
20535;SDS011;10426;49.420;8.390;2022-08-04T00:40:08;2.75;;;2.35;;
20535;SDS011;10426;49.420;8.390;2022-08-04T00:42:41;3.85;;;2.50;;
20535;SDS011;10426;49.420;8.390;2022-08-04T00:47:56;4.28;;;2.47;;
20535;SDS011;10426;49.420;8.390;2022-08-04T00:50:29;3.47;;;2.30;;
20535;SDS011;10426;49.420;8.390;2022-08-04T00:53:06;6.10;;;2.35;;
20535;SDS011;10426;49.420;8.390;2022-08-04T00:55:42;3.03;;;2.42;;
20535;SDS011;10426;49.420;8.390;2022-08-04T00:58:15;3.53;;;2.35;;
20535;SDS011;10426;49.420;8.390;2022-08-04T01:00:47;3.40;;;2.22;;
20535;SDS011;10426;49.420;8.390;2022-08-04T01:03:20;3.65;;;2.40;;
20535;SDS011;10426;49.420;8.390;2022-08-04T01:05:51;3.20;;;2.33;;
20535;SDS011;10426;49.420;8.390;2022-08-04T01:08:25;2.40;;;2.20;;
20535;SDS011;10426;49.420;8.390;2022-08-04T01:10:57;4.80;;;2.53;;
20535;SDS011;10426;49.420;8.390;2022-08-04T01:13:27;2.60;;;2.35;;
20535;SDS011;10426;49.420;8.390;2022-08-04T01:15:58;2.55;;;2.30;;
20535;SDS011;10426;49.420;8.390;2022-08-04T01:18:29;2.45;;;2.30;;
20535;SDS011;10426;49.420;8.390;2022-08-04T01:21:02;2.40;;;2.10;;
20535;SDS011;10426;49.420;8.390;2022-08-04T01:26:36;2.67;;;2.13;;
20535;SDS011;10426;49.420;8.390;2022-08-04T01:29:07;3.08;;;2.50;;
20535;SDS011;10426;49.420;8.390;2022-08-04T01:31:41;3.92;;;2.45;;
20535;SDS011;10426;49.420;8.390;2022-08-04T01:34:09;3.08;;;2.40;;
20535;SDS011;10426;49.420;8.390;2022-08-04T01:36:36;2.78;;;2.40;;
20535;SDS011;10426;49.420;8.390;2022-08-04T01:39:08;5.65;;;2.70;;
20535;SDS011;10426;49.420;8.390;2022-08-04T01:41:49;2.92;;;2.30;;
20535;SDS011;10426;49.420;8.390;2022-08-04T01:44:18;3.50;;;2.65;;
20535;SDS011;10426;49.420;8.390;2022-08-04T01:46:46;3.75;;;2.70;;
20535;SDS011;10426;49.420;8.390;2022-08-04T01:49:15;4.55;;;2.30;;
20535;SDS011;10426;49.420;8.390;2022-08-04T01:51:42;5.57;;;2.53;;
20535;SDS011;10426;49.420;8.390;2022-08-04T01:54:09;2.58;;;2.35;;
20535;SDS011;10426;49.420;8.390;2022-08-04T01:56:37;2.90;;;2.63;;
20535;SDS011;10426;49.420;8.390;2022-08-04T01:59:04;3.22;;;2.38;;
20535;SDS011;10426;49.420;8.390;2022-08-04T02:01:35;2.40;;;2.30;;
20535;SDS011;10426;49.420;8.390;2022-08-04T02:04:01;3.35;;;2.70;;
20535;SDS011;10426;49.420;8.390;2022-08-04T02:06:30;2.75;;;2.42;;
20535;SDS011;10426;49.420;8.390;2022-08-04T02:08:59;3.00;;;2.28;;
20535;SDS011;10426;49.420;8.390;2022-08-04T02:11:28;2.35;;;2.25;;
20535;SDS011;10426;49.420;8.390;2022-08-04T02:13:57;2.78;;;2.30;;
20535;SDS011;10426;49.420;8.390;2022-08-04T02:16:28;3.05;;;2.53;;
20535;SDS011;10426;49.420;8.390;2022-08-04T02:18:59;2.40;;;2.20;;
20535;SDS011;10426;49.420;8.390;2022-08-04T02:21:27;2.55;;;2.38;;
20535;SDS011;10426;49.420;8.390;2022-08-04T02:23:57;3.45;;;2.40;;
20535;SDS011;10426;49.420;8.390;2022-08-04T02:26:27;2.47;;;2.28;;
20535;SDS011;10426;49.420;8.390;2022-08-04T02:28:55;3.45;;;2.33;;
20535;SDS011;10426;49.420;8.390;2022-08-04T02:31:25;4.75;;;2.40;;
20535;SDS011;10426;49.420;8.390;2022-08-04T02:33:55;2.75;;;2.38;;
20535;SDS011;10426;49.420;8.390;2022-08-04T02:36:27;2.47;;;2.28;;
20535;SDS011;10426;49.420;8.390;2022-08-04T02:38:57;2.47;;;2.33;;
20535;SDS011;10426;49.420;8.390;2022-08-04T02:41:25;3.42;;;2.55;;
20535;SDS011;10426;49.420;8.390;2022-08-04T02:43:55;3.67;;;2.55;;
20535;SDS011;10426;49.420;8.390;2022-08-04T02:46:22;2.50;;;2.30;;
20535;SDS011;10426;49.420;8.390;2022-08-04T02:48:49;2.70;;;2.50;;
20535;SDS011;10426;49.420;8.390;2022-08-04T02:51:20;2.35;;;2.15;;
20535;SDS011;10426;49.420;8.390;2022-08-04T02:53:51;3.60;;;2.28;;
20535;SDS011;10426;49.420;8.390;2022-08-04T02:56:18;4.10;;;2.50;;
20535;SDS011;10426;49.420;8.390;2022-08-04T02:58:45;2.30;;;2.20;;
20535;SDS011;10426;49.420;8.390;2022-08-04T03:01:14;2.85;;;2.60;;
20535;SDS011;10426;49.420;8.390;2022-08-04T03:03:43;2.50;;;2.28;;
20535;SDS011;10426;49.420;8.390;2022-08-04T03:09:11;4.13;;;2.40;;
20535;SDS011;10426;49.420;8.390;2022-08-04T03:11:51;2.60;;;2.40;;
20535;SDS011;10426;49.420;8.390;2022-08-04T03:14:34;2.72;;;2.53;;
20535;SDS011;10426;49.420;8.390;2022-08-04T03:17:20;3.33;;;2.53;;
20535;SDS011;10426;49.420;8.390;2022-08-04T03:22:58;2.63;;;2.40;;
20535;SDS011;10426;49.420;8.390;2022-08-04T03:28:42;2.60;;;2.40;;
20535;SDS011;10426;49.420;8.390;2022-08-04T03:31:22;2.70;;;2.50;;
20535;SDS011;10426;49.420;8.390;2022-08-04T03:33:57;3.03;;;2.67;;
20535;SDS011;10426;49.420;8.390;2022-08-04T03:36:37;4.20;;;2.55;;
20535;SDS011;10426;49.420;8.390;2022-08-04T03:39:16;2.72;;;2.60;;
20535;SDS011;10426;49.420;8.390;2022-08-04T03:41:47;2.92;;;2.67;;
20535;SDS011;10426;49.420;8.390;2022-08-04T03:44:23;3.03;;;2.83;;
20535;SDS011;10426;49.420;8.390;2022-08-04T03:47:04;3.08;;;2.60;;
20535;SDS011;10426;49.420;8.390;2022-08-04T03:49:44;3.20;;;3.00;;
20535;SDS011;10426;49.420;8.390;2022-08-04T03:52:20;4.18;;;3.00;;
20535;SDS011;10426;49.420;8.390;2022-08-04T03:58:00;2.83;;;2.63;;
20535;SDS011;10426;49.420;8.390;2022-08-04T04:00:38;3.15;;;2.85;;
20535;SDS011;10426;49.420;8.390;2022-08-04T04:05:57;4.40;;;2.85;;
20535;SDS011;10426;49.420;8.390;2022-08-04T04:11:24;4.50;;;2.80;;
20535;SDS011;10426;49.420;8.390;2022-08-04T04:14:00;3.00;;;2.58;;
20535;SDS011;10426;49.420;8.390;2022-08-04T04:16:40;2.78;;;2.58;;
20535;SDS011;10426;49.420;8.390;2022-08-04T04:19:20;5.43;;;3.50;;
20535;SDS011;10426;49.420;8.390;2022-08-04T04:21:57;3.35;;;3.05;;
20535;SDS011;10426;49.420;8.390;2022-08-04T04:27:22;4.68;;;3.08;;
20535;SDS011;10426;49.420;8.390;2022-08-04T04:29:59;5.82;;;3.10;;
20535;SDS011;10426;49.420;8.390;2022-08-04T04:32:31;4.65;;;3.00;;
20535;SDS011;10426;49.420;8.390;2022-08-04T04:37:49;3.20;;;2.80;;
20535;SDS011;10426;49.420;8.390;2022-08-04T04:40:20;3.15;;;2.70;;
20535;SDS011;10426;49.420;8.390;2022-08-04T04:42:53;4.93;;;2.97;;
20535;SDS011;10426;49.420;8.390;2022-08-04T04:45:21;3.30;;;3.00;;
20535;SDS011;10426;49.420;8.390;2022-08-04T04:48:03;3.22;;;2.92;;
20535;SDS011;10426;49.420;8.390;2022-08-04T04:50:35;3.13;;;2.67;;
20535;SDS011;10426;49.420;8.390;2022-08-04T04:53:05;3.17;;;2.88;;
20535;SDS011;10426;49.420;8.390;2022-08-04T04:55:38;4.27;;;2.80;;
20535;SDS011;10426;49.420;8.390;2022-08-04T04:58:07;4.72;;;2.80;;
20535;SDS011;10426;49.420;8.390;2022-08-04T05:00:39;4.70;;;2.80;;
20535;SDS011;10426;49.420;8.390;2022-08-04T05:03:29;4.93;;;2.80;;
20535;SDS011;10426;49.420;8.390;2022-08-04T05:06:13;3.60;;;2.78;;
20535;SDS011;10426;49.420;8.390;2022-08-04T05:08:51;2.67;;;2.47;;
20535;SDS011;10426;49.420;8.390;2022-08-04T05:11:24;3.80;;;2.95;;
20535;SDS011;10426;49.420;8.390;2022-08-04T05:13:57;2.75;;;2.55;;
20535;SDS011;10426;49.420;8.390;2022-08-04T05:16:25;2.90;;;2.70;;
20535;SDS011;10426;49.420;8.390;2022-08-04T05:18:56;2.70;;;2.50;;
20535;SDS011;10426;49.420;8.390;2022-08-04T05:21:31;4.53;;;2.40;;
20535;SDS011;10426;49.420;8.390;2022-08-04T05:23:59;2.60;;;2.40;;
20535;SDS011;10426;49.420;8.390;2022-08-04T05:26:29;2.90;;;2.70;;
20535;SDS011;10426;49.420;8.390;2022-08-04T05:28:56;2.50;;;2.37;;
20535;SDS011;10426;49.420;8.390;2022-08-04T05:31:26;2.40;;;2.30;;
20535;SDS011;10426;49.420;8.390;2022-08-04T05:33:56;2.63;;;2.42;;
20535;SDS011;10426;49.420;8.390;2022-08-04T05:36:25;3.80;;;2.20;;
20535;SDS011;10426;49.420;8.390;2022-08-04T05:38:56;2.38;;;2.13;;
20535;SDS011;10426;49.420;8.390;2022-08-04T05:41:24;2.40;;;2.20;;
20535;SDS011;10426;49.420;8.390;2022-08-04T05:43:51;2.22;;;2.13;;
20535;SDS011;10426;49.420;8.390;2022-08-04T05:46:18;2.88;;;2.30;;
20535;SDS011;10426;49.420;8.390;2022-08-04T05:48:45;2.40;;;1.90;;
20535;SDS011;10426;49.420;8.390;2022-08-04T05:51:13;2.05;;;1.95;;
20535;SDS011;10426;49.420;8.390;2022-08-04T05:53:41;2.33;;;2.08;;
20535;SDS011;10426;49.420;8.390;2022-08-04T05:56:09;2.58;;;1.90;;
20535;SDS011;10426;49.420;8.390;2022-08-04T05:58:36;2.40;;;2.10;;
20535;SDS011;10426;49.420;8.390;2022-08-04T06:01:04;2.30;;;2.20;;
20535;SDS011;10426;49.420;8.390;2022-08-04T06:03:32;2.50;;;2.30;;
20535;SDS011;10426;49.420;8.390;2022-08-04T06:06:00;3.33;;;2.30;;
20535;SDS011;10426;49.420;8.390;2022-08-04T06:08:29;3.90;;;2.30;;
20535;SDS011;10426;49.420;8.390;2022-08-04T06:10:58;2.40;;;2.22;;
20535;SDS011;10426;49.420;8.390;2022-08-04T06:13:26;3.03;;;1.98;;
20535;SDS011;10426;49.420;8.390;2022-08-04T06:15:54;5.85;;;2.40;;
20535;SDS011;10426;49.420;8.390;2022-08-04T06:18:21;2.05;;;1.88;;
20535;SDS011;10426;49.420;8.390;2022-08-04T06:20:49;2.78;;;2.10;;
20535;SDS011;10426;49.420;8.390;2022-08-04T06:23:17;2.38;;;2.17;;
20535;SDS011;10426;49.420;8.390;2022-08-04T06:25:48;2.17;;;1.90;;
20535;SDS011;10426;49.420;8.390;2022-08-04T06:28:15;3.58;;;1.90;;
20535;SDS011;10426;49.420;8.390;2022-08-04T06:30:43;2.17;;;1.75;;
20535;SDS011;10426;49.420;8.390;2022-08-04T06:33:12;2.90;;;2.08;;
20535;SDS011;10426;49.420;8.390;2022-08-04T06:35:49;5.63;;;2.00;;
20535;SDS011;10426;49.420;8.390;2022-08-04T06:38:18;2.90;;;1.90;;
20535;SDS011;10426;49.420;8.390;2022-08-04T06:40:46;3.17;;;2.00;;
20535;SDS011;10426;49.420;8.390;2022-08-04T06:43:13;2.00;;;1.80;;
20535;SDS011;10426;49.420;8.390;2022-08-04T06:45:40;2.05;;;1.95;;
20535;SDS011;10426;49.420;8.390;2022-08-04T06:48:09;4.97;;;2.03;;
20535;SDS011;10426;49.420;8.390;2022-08-04T06:50:37;2.03;;;1.80;;
20535;SDS011;10426;49.420;8.390;2022-08-04T06:53:05;2.87;;;1.70;;
20535;SDS011;10426;49.420;8.390;2022-08-04T06:55:31;2.10;;;1.67;;
20535;SDS011;10426;49.420;8.390;2022-08-04T06:58:00;2.72;;;1.58;;
20535;SDS011;10426;49.420;8.390;2022-08-04T07:00:27;1.90;;;1.75;;
20535;SDS011;10426;49.420;8.390;2022-08-04T07:02:54;2.05;;;1.85;;
20535;SDS011;10426;49.420;8.390;2022-08-04T07:05:22;2.55;;;2.00;;
20535;SDS011;10426;49.420;8.390;2022-08-04T07:07:48;2.33;;;1.83;;
20535;SDS011;10426;49.420;8.390;2022-08-04T07:10:15;3.38;;;1.80;;
20535;SDS011;10426;49.420;8.390;2022-08-04T07:12:42;1.95;;;1.85;;
20535;SDS011;10426;49.420;8.390;2022-08-04T07:15:10;2.08;;;1.70;;
20535;SDS011;10426;49.420;8.390;2022-08-04T07:17:38;3.10;;;1.90;;
20535;SDS011;10426;49.420;8.390;2022-08-04T07:20:06;2.00;;;1.83;;
20535;SDS011;10426;49.420;8.390;2022-08-04T07:22:33;2.30;;;1.90;;
20535;SDS011;10426;49.420;8.390;2022-08-04T07:25:00;1.80;;;1.73;;
20535;SDS011;10426;49.420;8.390;2022-08-04T07:27:26;3.08;;;1.92;;
20535;SDS011;10426;49.420;8.390;2022-08-04T07:29:53;2.35;;;2.10;;
20535;SDS011;10426;49.420;8.390;2022-08-04T07:32:21;3.38;;;2.17;;
20535;SDS011;10426;49.420;8.390;2022-08-04T07:34:48;3.10;;;2.30;;
20535;SDS011;10426;49.420;8.390;2022-08-04T07:37:15;2.47;;;2.28;;
20535;SDS011;10426;49.420;8.390;2022-08-04T07:39:42;2.40;;;2.30;;
20535;SDS011;10426;49.420;8.390;2022-08-04T07:42:09;3.35;;;2.40;;
20535;SDS011;10426;49.420;8.390;2022-08-04T07:44:36;2.65;;;2.42;;
20535;SDS011;10426;49.420;8.390;2022-08-04T07:47:05;3.70;;;2.25;;
20535;SDS011;10426;49.420;8.390;2022-08-04T07:49:33;7.10;;;2.50;;
20535;SDS011;10426;49.420;8.390;2022-08-04T07:52:00;2.83;;;2.57;;
20535;SDS011;10426;49.420;8.390;2022-08-04T07:54:27;4.45;;;2.80;;
20535;SDS011;10426;49.420;8.390;2022-08-04T07:56:54;5.18;;;2.53;;
20535;SDS011;10426;49.420;8.390;2022-08-04T07:59:21;2.90;;;2.63;;
20535;SDS011;10426;49.420;8.390;2022-08-04T08:01:48;2.60;;;2.40;;
20535;SDS011;10426;49.420;8.390;2022-08-04T08:04:15;2.55;;;2.45;;
20535;SDS011;10426;49.420;8.390;2022-08-04T08:06:44;2.47;;;2.38;;
20535;SDS011;10426;49.420;8.390;2022-08-04T08:09:12;2.53;;;2.35;;
20535;SDS011;10426;49.420;8.390;2022-08-04T08:11:39;3.47;;;2.20;;
20535;SDS011;10426;49.420;8.390;2022-08-04T08:14:06;2.20;;;2.10;;
20535;SDS011;10426;49.420;8.390;2022-08-04T08:16:34;2.50;;;2.40;;
20535;SDS011;10426;49.420;8.390;2022-08-04T08:19:01;3.83;;;2.47;;
20535;SDS011;10426;49.420;8.390;2022-08-04T08:21:28;4.45;;;2.72;;
20535;SDS011;10426;49.420;8.390;2022-08-04T08:23:56;3.65;;;2.50;;
20535;SDS011;10426;49.420;8.390;2022-08-04T08:26:23;3.25;;;2.20;;
20535;SDS011;10426;49.420;8.390;2022-08-04T08:28:49;2.83;;;2.53;;
20535;SDS011;10426;49.420;8.390;2022-08-04T08:31:16;4.43;;;2.63;;
20535;SDS011;10426;49.420;8.390;2022-08-04T08:33:43;3.20;;;2.20;;
20535;SDS011;10426;49.420;8.390;2022-08-04T08:36:11;2.40;;;2.20;;
20535;SDS011;10426;49.420;8.390;2022-08-04T08:38:42;3.38;;;2.17;;
20535;SDS011;10426;49.420;8.390;2022-08-04T08:41:19;3.85;;;2.17;;
20535;SDS011;10426;49.420;8.390;2022-08-04T08:43:50;2.80;;;2.53;;
20535;SDS011;10426;49.420;8.390;2022-08-04T08:46:27;2.55;;;2.35;;
20535;SDS011;10426;49.420;8.390;2022-08-04T08:49:01;4.13;;;2.50;;
20535;SDS011;10426;49.420;8.390;2022-08-04T08:51:39;2.63;;;2.43;;
20535;SDS011;10426;49.420;8.390;2022-08-04T08:54:16;2.50;;;2.30;;
20535;SDS011;10426;49.420;8.390;2022-08-04T08:56:50;2.97;;;2.40;;
20535;SDS011;10426;49.420;8.390;2022-08-04T08:59:25;4.60;;;2.53;;
20535;SDS011;10426;49.420;8.390;2022-08-04T09:02:02;2.80;;;2.60;;
20535;SDS011;10426;49.420;8.390;2022-08-04T09:04:32;2.50;;;2.40;;
20535;SDS011;10426;49.420;8.390;2022-08-04T09:07:09;2.47;;;2.28;;
20535;SDS011;10426;49.420;8.390;2022-08-04T09:09:50;2.47;;;2.30;;
20535;SDS011;10426;49.420;8.390;2022-08-04T09:12:23;2.67;;;2.20;;
20535;SDS011;10426;49.420;8.390;2022-08-04T09:14:53;2.30;;;2.20;;
20535;SDS011;10426;49.420;8.390;2022-08-04T09:17:22;4.10;;;2.30;;
20535;SDS011;10426;49.420;8.390;2022-08-04T09:19:55;2.58;;;2.38;;
20535;SDS011;10426;49.420;8.390;2022-08-04T09:22:24;2.45;;;2.30;;
20535;SDS011;10426;49.420;8.390;2022-08-04T09:24:56;2.60;;;2.40;;
20535;SDS011;10426;49.420;8.390;2022-08-04T09:27:32;3.53;;;2.55;;
20535;SDS011;10426;49.420;8.390;2022-08-04T09:30:02;3.88;;;2.70;;
20535;SDS011;10426;49.420;8.390;2022-08-04T09:32:31;2.50;;;2.40;;
20535;SDS011;10426;49.420;8.390;2022-08-04T09:35:05;2.92;;;2.60;;
20535;SDS011;10426;49.420;8.390;2022-08-04T09:37:40;2.83;;;2.63;;
20535;SDS011;10426;49.420;8.390;2022-08-04T09:40:14;3.65;;;2.50;;
20535;SDS011;10426;49.420;8.390;2022-08-04T09:42:49;3.07;;;2.47;;
20535;SDS011;10426;49.420;8.390;2022-08-04T09:45:18;3.75;;;2.55;;
20535;SDS011;10426;49.420;8.390;2022-08-04T09:47:49;2.45;;;2.35;;
20535;SDS011;10426;49.420;8.390;2022-08-04T09:50:25;2.40;;;2.30;;
20535;SDS011;10426;49.420;8.390;2022-08-04T09:52:57;2.53;;;2.33;;
20535;SDS011;10426;49.420;8.390;2022-08-04T09:55:32;2.30;;;2.20;;
20535;SDS011;10426;49.420;8.390;2022-08-04T09:58:04;2.40;;;2.30;;
20535;SDS011;10426;49.420;8.390;2022-08-04T10:00:33;5.60;;;2.45;;
20535;SDS011;10426;49.420;8.390;2022-08-04T10:03:01;2.70;;;2.50;;
20535;SDS011;10426;49.420;8.390;2022-08-04T10:05:35;2.70;;;2.50;;
20535;SDS011;10426;49.420;8.390;2022-08-04T10:08:13;2.90;;;2.70;;
20535;SDS011;10426;49.420;8.390;2022-08-04T10:10:46;2.50;;;2.30;;
20535;SDS011;10426;49.420;8.390;2022-08-04T10:13:22;3.70;;;2.50;;
20535;SDS011;10426;49.420;8.390;2022-08-04T10:15:56;4.03;;;2.53;;
20535;SDS011;10426;49.420;8.390;2022-08-04T10:18:28;3.88;;;2.80;;
20535;SDS011;10426;49.420;8.390;2022-08-04T10:21:02;2.60;;;2.50;;
20535;SDS011;10426;49.420;8.390;2022-08-04T10:23:32;4.03;;;2.42;;
20535;SDS011;10426;49.420;8.390;2022-08-04T10:26:05;2.50;;;2.40;;
20535;SDS011;10426;49.420;8.390;2022-08-04T10:28:42;2.63;;;2.42;;
20535;SDS011;10426;49.420;8.390;2022-08-04T10:31:11;4.13;;;2.35;;
20535;SDS011;10426;49.420;8.390;2022-08-04T10:33:41;2.80;;;2.50;;
20535;SDS011;10426;49.420;8.390;2022-08-04T10:36:11;2.28;;;2.13;;
20535;SDS011;10426;49.420;8.390;2022-08-04T10:38:44;2.83;;;2.13;;
20535;SDS011;10426;49.420;8.390;2022-08-04T10:41:17;2.90;;;2.28;;
20535;SDS011;10426;49.420;8.390;2022-08-04T10:43:50;2.50;;;2.10;;
20535;SDS011;10426;49.420;8.390;2022-08-04T10:46:25;2.80;;;2.60;;
20535;SDS011;10426;49.420;8.390;2022-08-04T10:48:55;2.10;;;1.90;;
20535;SDS011;10426;49.420;8.390;2022-08-04T10:51:24;2.20;;;2.00;;
20535;SDS011;10426;49.420;8.390;2022-08-04T10:53:55;1.92;;;1.80;;
20535;SDS011;10426;49.420;8.390;2022-08-04T10:56:23;2.13;;;1.95;;
20535;SDS011;10426;49.420;8.390;2022-08-04T10:58:57;2.28;;;1.80;;
20535;SDS011;10426;49.420;8.390;2022-08-04T11:01:26;2.30;;;2.10;;
20535;SDS011;10426;49.420;8.390;2022-08-04T11:03:55;2.10;;;2.00;;
20535;SDS011;10426;49.420;8.390;2022-08-04T11:06:23;2.20;;;2.10;;
20535;SDS011;10426;49.420;8.390;2022-08-04T11:08:51;2.07;;;1.97;;
20535;SDS011;10426;49.420;8.390;2022-08-04T11:11:21;2.83;;;2.20;;
20535;SDS011;10426;49.420;8.390;2022-08-04T11:13:52;3.97;;;2.50;;
20535;SDS011;10426;49.420;8.390;2022-08-04T11:16:26;2.30;;;2.20;;
20535;SDS011;10426;49.420;8.390;2022-08-04T11:18:59;2.30;;;2.20;;
20535;SDS011;10426;49.420;8.390;2022-08-04T11:21:33;2.38;;;2.28;;
20535;SDS011;10426;49.420;8.390;2022-08-04T11:24:02;4.37;;;2.27;;
20535;SDS011;10426;49.420;8.390;2022-08-04T11:26:34;2.40;;;2.20;;
20535;SDS011;10426;49.420;8.390;2022-08-04T11:29:04;1.92;;;1.90;;
20535;SDS011;10426;49.420;8.390;2022-08-04T11:31:38;2.30;;;2.20;;
20535;SDS011;10426;49.420;8.390;2022-08-04T11:34:09;2.00;;;1.90;;
20535;SDS011;10426;49.420;8.390;2022-08-04T11:36:38;4.75;;;2.00;;
20535;SDS011;10426;49.420;8.390;2022-08-04T11:39:08;2.10;;;1.92;;
20535;SDS011;10426;49.420;8.390;2022-08-04T11:41:39;2.63;;;2.03;;
20535;SDS011;10426;49.420;8.390;2022-08-04T11:44:11;2.00;;;1.90;;
20535;SDS011;10426;49.420;8.390;2022-08-04T11:46:46;1.95;;;1.85;;
20535;SDS011;10426;49.420;8.390;2022-08-04T11:49:15;3.00;;;2.25;;
20535;SDS011;10426;49.420;8.390;2022-08-04T11:51:47;2.00;;;1.90;;
20535;SDS011;10426;49.420;8.390;2022-08-04T11:54:15;2.00;;;1.90;;
20535;SDS011;10426;49.420;8.390;2022-08-04T11:56:43;1.85;;;1.60;;
20535;SDS011;10426;49.420;8.390;2022-08-04T11:59:10;1.70;;;1.60;;
20535;SDS011;10426;49.420;8.390;2022-08-04T12:01:41;2.30;;;1.70;;
20535;SDS011;10426;49.420;8.390;2022-08-04T12:04:16;1.70;;;1.58;;
20535;SDS011;10426;49.420;8.390;2022-08-04T12:06:44;1.52;;;1.52;;
20535;SDS011;10426;49.420;8.390;2022-08-04T12:09:14;1.85;;;1.73;;
20535;SDS011;10426;49.420;8.390;2022-08-04T12:11:49;1.85;;;1.80;;
20535;SDS011;10426;49.420;8.390;2022-08-04T12:14:25;1.83;;;1.70;;
20535;SDS011;10426;49.420;8.390;2022-08-04T12:16:54;2.85;;;1.67;;
20535;SDS011;10426;49.420;8.390;2022-08-04T12:19:28;2.00;;;1.90;;
20535;SDS011;10426;49.420;8.390;2022-08-04T12:21:56;1.80;;;1.70;;
20535;SDS011;10426;49.420;8.390;2022-08-04T12:24:25;1.95;;;1.90;;
20535;SDS011;10426;49.420;8.390;2022-08-04T12:26:55;1.70;;;1.60;;
20535;SDS011;10426;49.420;8.390;2022-08-04T12:29:22;1.60;;;1.55;;
20535;SDS011;10426;49.420;8.390;2022-08-04T12:31:51;1.40;;;1.40;;
20535;SDS011;10426;49.420;8.390;2022-08-04T12:34:22;1.43;;;1.43;;
20535;SDS011;10426;49.420;8.390;2022-08-04T12:36:52;1.67;;;1.38;;
20535;SDS011;10426;49.420;8.390;2022-08-04T12:39:21;1.30;;;1.30;;
20535;SDS011;10426;49.420;8.390;2022-08-04T12:41:51;2.92;;;1.60;;
20535;SDS011;10426;49.420;8.390;2022-08-04T12:44:22;1.95;;;1.48;;
20535;SDS011;10426;49.420;8.390;2022-08-04T12:46:50;1.38;;;1.33;;
20535;SDS011;10426;49.420;8.390;2022-08-04T12:49:17;3.85;;;1.60;;
20535;SDS011;10426;49.420;8.390;2022-08-04T12:51:44;1.43;;;1.33;;
20535;SDS011;10426;49.420;8.390;2022-08-04T12:54:12;1.40;;;1.40;;
20535;SDS011;10426;49.420;8.390;2022-08-04T12:56:49;1.60;;;1.40;;
20535;SDS011;10426;49.420;8.390;2022-08-04T12:59:16;1.48;;;1.40;;
20535;SDS011;10426;49.420;8.390;2022-08-04T13:01:45;1.90;;;1.43;;
20535;SDS011;10426;49.420;8.390;2022-08-04T13:04:14;1.58;;;1.40;;
20535;SDS011;10426;49.420;8.390;2022-08-04T13:06:42;2.13;;;1.40;;
20535;SDS011;10426;49.420;8.390;2022-08-04T13:09:10;2.30;;;1.30;;
20535;SDS011;10426;49.420;8.390;2022-08-04T13:11:40;2.50;;;1.48;;
20535;SDS011;10426;49.420;8.390;2022-08-04T13:14:09;1.60;;;1.50;;
20535;SDS011;10426;49.420;8.390;2022-08-04T13:16:36;1.38;;;1.38;;
20535;SDS011;10426;49.420;8.390;2022-08-04T13:19:04;2.90;;;1.38;;
20535;SDS011;10426;49.420;8.390;2022-08-04T13:21:32;1.60;;;1.50;;
20535;SDS011;10426;49.420;8.390;2022-08-04T13:24:00;1.55;;;1.45;;
20535;SDS011;10426;49.420;8.390;2022-08-04T13:26:27;3.60;;;1.67;;
20535;SDS011;10426;49.420;8.390;2022-08-04T13:28:57;1.50;;;1.40;;
20535;SDS011;10426;49.420;8.390;2022-08-04T13:31:25;1.45;;;1.42;;
20535;SDS011;10426;49.420;8.390;2022-08-04T13:33:53;1.80;;;1.70;;
20535;SDS011;10426;49.420;8.390;2022-08-04T13:36:23;1.88;;;1.77;;
20535;SDS011;10426;49.420;8.390;2022-08-04T13:38:50;1.80;;;1.70;;
20535;SDS011;10426;49.420;8.390;2022-08-04T13:41:18;2.03;;;1.40;;
20535;SDS011;10426;49.420;8.390;2022-08-04T13:43:46;1.50;;;1.50;;
20535;SDS011;10426;49.420;8.390;2022-08-04T13:46:16;1.50;;;1.40;;
20535;SDS011;10426;49.420;8.390;2022-08-04T13:48:43;1.52;;;1.42;;
20535;SDS011;10426;49.420;8.390;2022-08-04T13:51:10;1.30;;;1.30;;
20535;SDS011;10426;49.420;8.390;2022-08-04T13:53:38;1.58;;;1.50;;
20535;SDS011;10426;49.420;8.390;2022-08-04T13:56:06;1.60;;;1.40;;
20535;SDS011;10426;49.420;8.390;2022-08-04T13:58:38;1.42;;;1.40;;
20535;SDS011;10426;49.420;8.390;2022-08-04T14:01:08;1.50;;;1.50;;
20535;SDS011;10426;49.420;8.390;2022-08-04T14:03:40;1.38;;;1.38;;
20535;SDS011;10426;49.420;8.390;2022-08-04T14:06:12;1.58;;;1.58;;
20535;SDS011;10426;49.420;8.390;2022-08-04T14:08:46;1.60;;;1.60;;
20535;SDS011;10426;49.420;8.390;2022-08-04T14:11:14;1.52;;;1.50;;
20535;SDS011;10426;49.420;8.390;2022-08-04T14:13:42;1.80;;;1.70;;
20535;SDS011;10426;49.420;8.390;2022-08-04T14:16:15;3.28;;;1.65;;
20535;SDS011;10426;49.420;8.390;2022-08-04T14:18:44;1.65;;;1.52;;
20535;SDS011;10426;49.420;8.390;2022-08-04T14:21:11;1.70;;;1.60;;
20535;SDS011;10426;49.420;8.390;2022-08-04T14:23:40;1.52;;;1.52;;
20535;SDS011;10426;49.420;8.390;2022-08-04T14:26:17;2.00;;;1.70;;
20535;SDS011;10426;49.420;8.390;2022-08-04T14:28:44;1.70;;;1.60;;
20535;SDS011;10426;49.420;8.390;2022-08-04T14:31:12;1.85;;;1.75;;
20535;SDS011;10426;49.420;8.390;2022-08-04T14:33:39;1.50;;;1.50;;
20535;SDS011;10426;49.420;8.390;2022-08-04T14:36:08;1.77;;;1.70;;
20535;SDS011;10426;49.420;8.390;2022-08-04T14:38:42;1.70;;;1.60;;
20535;SDS011;10426;49.420;8.390;2022-08-04T14:41:09;3.00;;;1.50;;
20535;SDS011;10426;49.420;8.390;2022-08-04T14:43:39;1.48;;;1.48;;
20535;SDS011;10426;49.420;8.390;2022-08-04T14:46:07;1.45;;;1.40;;
20535;SDS011;10426;49.420;8.390;2022-08-04T14:48:33;1.73;;;1.63;;
20535;SDS011;10426;49.420;8.390;2022-08-04T14:51:00;1.70;;;1.60;;
20535;SDS011;10426;49.420;8.390;2022-08-04T14:53:28;1.77;;;1.60;;
20535;SDS011;10426;49.420;8.390;2022-08-04T14:55:57;1.98;;;1.60;;
20535;SDS011;10426;49.420;8.390;2022-08-04T14:58:25;2.13;;;1.98;;
20535;SDS011;10426;49.420;8.390;2022-08-04T15:00:52;1.33;;;1.30;;
20535;SDS011;10426;49.420;8.390;2022-08-04T15:03:26;1.75;;;1.50;;
20535;SDS011;10426;49.420;8.390;2022-08-04T15:05:57;1.80;;;1.40;;
20535;SDS011;10426;49.420;8.390;2022-08-04T15:08:34;1.63;;;1.40;;
20535;SDS011;10426;49.420;8.390;2022-08-04T15:11:03;1.70;;;1.60;;
20535;SDS011;10426;49.420;8.390;2022-08-04T15:13:33;1.50;;;1.40;;
20535;SDS011;10426;49.420;8.390;2022-08-04T15:16:09;1.40;;;1.40;;
20535;SDS011;10426;49.420;8.390;2022-08-04T15:18:44;2.50;;;1.50;;
20535;SDS011;10426;49.420;8.390;2022-08-04T15:21:11;3.40;;;1.48;;
20535;SDS011;10426;49.420;8.390;2022-08-04T15:23:41;1.87;;;1.50;;
20535;SDS011;10426;49.420;8.390;2022-08-04T15:26:09;1.58;;;1.48;;
20535;SDS011;10426;49.420;8.390;2022-08-04T15:28:50;1.30;;;1.30;;
20535;SDS011;10426;49.420;8.390;2022-08-04T15:31:18;1.50;;;1.40;;
20535;SDS011;10426;49.420;8.390;2022-08-04T15:33:46;1.53;;;1.53;;
20535;SDS011;10426;49.420;8.390;2022-08-04T15:36:16;2.17;;;1.40;;